createdAt,value
2018-09-29T00:00:53.930Z,7.30
2018-09-29T00:03:23.043Z,7.70
2018-09-29T00:05:52.380Z,6.93
2018-09-29T00:08:21.483Z,7.13
2018-09-29T00:10:50.763Z,7.80
2018-09-29T00:13:19.947Z,7.50
2018-09-29T00:15:49.019Z,7.73
2018-09-29T00:18:18.096Z,7.27
2018-09-29T00:20:47.447Z,7.40
2018-09-29T00:23:16.502Z,7.53
2018-09-29T00:25:45.482Z,7.07
2018-09-29T00:28:14.636Z,7.57
2018-09-29T00:30:43.863Z,7.30
2018-09-29T00:33:12.816Z,7.83
2018-09-29T00:35:41.880Z,7.13
2018-09-29T00:38:11.201Z,7.47
2018-09-29T00:40:40.212Z,7.00
2018-09-29T00:43:09.366Z,6.83
2018-09-29T00:45:38.595Z,7.23
2018-09-29T00:48:07.607Z,6.40
2018-09-29T00:50:36.988Z,6.93
2018-09-29T00:53:06.004Z,6.90
2018-09-29T00:55:35.323Z,6.70
2018-09-29T00:58:04.501Z,7.00
2018-09-29T01:00:33.695Z,6.40
2018-09-29T01:03:02.829Z,7.40
2018-09-29T01:05:32.027Z,6.50
2018-09-29T01:08:01.125Z,6.33
2018-09-29T01:10:30.175Z,6.03
2018-09-29T01:12:59.409Z,6.77
2018-09-29T01:15:28.408Z,7.27
2018-09-29T01:17:57.659Z,6.30
2018-09-29T01:20:26.971Z,6.17
2018-09-29T01:22:56.251Z,6.43
2018-09-29T01:25:25.591Z,6.50
2018-09-29T01:27:54.804Z,6.30
2018-09-29T01:30:24.306Z,6.50
2018-09-29T01:32:53.236Z,6.47
2018-09-29T01:35:22.604Z,6.50
2018-09-29T01:37:51.920Z,6.70
2018-09-29T01:40:21.287Z,6.23
2018-09-29T01:42:50.530Z,5.70
2018-09-29T01:45:19.662Z,6.17
2018-09-29T01:47:48.591Z,6.10
2018-09-29T01:50:17.576Z,6.47
2018-09-29T01:52:46.862Z,6.57
2018-09-29T01:55:15.901Z,6.20
2018-09-29T01:57:45.115Z,5.80
2018-09-29T02:00:14.143Z,5.70
2018-09-29T02:02:43.406Z,5.50
2018-09-29T02:05:12.564Z,5.47
2018-09-29T02:07:41.853Z,5.57
2018-09-29T02:10:11.360Z,5.70
2018-09-29T02:12:40.297Z,5.30
2018-09-29T02:15:09.671Z,5.27
2018-09-29T02:17:38.988Z,5.43
2018-09-29T02:20:08.239Z,5.47
2018-09-29T02:22:37.179Z,5.23
2018-09-29T02:25:06.526Z,5.20
2018-09-29T02:27:35.395Z,5.07
2018-09-29T02:30:04.715Z,6.47
2018-09-29T02:32:33.784Z,5.80
2018-09-29T02:35:02.909Z,5.03
2018-09-29T02:37:32.291Z,5.50
2018-09-29T02:40:01.556Z,5.07
2018-09-29T02:42:30.871Z,5.43
2018-09-29T02:45:00.010Z,5.40
2018-09-29T02:47:29.278Z,4.87
2018-09-29T02:49:58.596Z,5.40
2018-09-29T02:52:27.912Z,5.60
2018-09-29T02:54:57.169Z,5.10
2018-09-29T02:57:26.046Z,5.37
2018-09-29T02:59:55.383Z,5.20
2018-09-29T03:02:24.783Z,5.20
2018-09-29T03:04:54.244Z,4.87
2018-09-29T03:07:23.637Z,5.97
2018-09-29T03:09:52.844Z,5.37
2018-09-29T03:12:22.048Z,5.70
2018-09-29T03:14:51.383Z,5.90
2018-09-29T03:17:20.678Z,5.43
2018-09-29T03:19:49.989Z,5.57
2018-09-29T03:22:19.084Z,5.90
2018-09-29T03:24:48.407Z,5.27
2018-09-29T03:27:17.586Z,4.90
2018-09-29T03:29:46.777Z,4.60
2018-09-29T03:32:16.010Z,5.43
2018-09-29T03:34:45.167Z,5.33
2018-09-29T03:37:14.039Z,5.80
2018-09-29T03:39:42.848Z,6.47
2018-09-29T03:42:11.891Z,5.87
2018-09-29T03:44:41.231Z,5.03
2018-09-29T03:47:10.483Z,5.53
2018-09-29T03:49:39.397Z,5.63
2018-09-29T03:52:08.672Z,5.17
2018-09-29T03:54:37.899Z,5.57
2018-09-29T03:57:06.839Z,5.23
2018-09-29T03:59:35.879Z,6.20
2018-09-29T04:02:05.067Z,5.63
2018-09-29T04:04:34.092Z,4.97
2018-09-29T04:07:03.304Z,5.77
2018-09-29T04:09:32.643Z,6.47
2018-09-29T04:12:02.016Z,6.00
2018-09-29T04:14:31.208Z,6.00
2018-09-29T04:17:00.501Z,7.10
2018-09-29T04:19:30.026Z,6.47
2018-09-29T04:21:59.251Z,6.97
2018-09-29T04:24:28.546Z,7.83
2018-09-29T04:26:57.647Z,7.00
2018-09-29T04:29:26.934Z,5.83
2018-09-29T04:31:56.189Z,5.37
2018-09-29T04:34:25.402Z,4.77
2018-09-29T04:36:54.723Z,5.00
2018-09-29T04:39:23.708Z,4.90
2018-09-29T04:41:52.872Z,5.30
2018-09-29T04:44:22.162Z,4.83
2018-09-29T04:46:51.472Z,4.80
2018-09-29T04:49:20.571Z,5.70
2018-09-29T04:51:49.455Z,5.57
2018-09-29T04:54:18.547Z,5.20
2018-09-29T04:56:48.073Z,5.63
2018-09-29T04:59:17.448Z,5.30
2018-09-29T05:01:46.596Z,5.30
2018-09-29T05:04:15.908Z,5.43
2018-09-29T05:06:44.995Z,5.43
2018-09-29T05:09:14.000Z,5.63
2018-09-29T05:11:43.183Z,5.97
2018-09-29T05:14:12.335Z,5.67
2018-09-29T05:16:41.440Z,6.23
2018-09-29T05:19:10.640Z,5.70
2018-09-29T05:21:40.034Z,5.73
2018-09-29T05:24:09.384Z,5.67
2018-09-29T05:26:38.566Z,5.83
2018-09-29T05:29:07.618Z,5.70
2018-09-29T05:31:36.804Z,5.63
2018-09-29T05:34:06.025Z,5.07
2018-09-29T05:36:35.417Z,4.67
2018-09-29T05:39:05.783Z,4.93
2018-09-29T05:41:35.086Z,4.60
2018-09-29T05:44:04.389Z,4.97
2018-09-29T05:46:33.741Z,4.33
2018-09-29T05:49:03.143Z,5.10
2018-09-29T05:51:32.591Z,5.10
2018-09-29T05:54:01.857Z,5.13
2018-09-29T05:56:31.128Z,6.30
2018-09-29T05:59:00.339Z,5.33
2018-09-29T06:01:29.702Z,4.97
2018-09-29T06:03:59.029Z,5.07
2018-09-29T06:06:31.088Z,5.17
2018-09-29T06:09:01.172Z,5.47
2018-09-29T06:11:30.984Z,5.20
2018-09-29T06:14:00.308Z,5.10
2018-09-29T06:16:29.545Z,5.23
2018-09-29T06:18:58.872Z,5.27
2018-09-29T06:21:28.235Z,6.17
2018-09-29T06:23:57.340Z,5.67
2018-09-29T06:26:26.575Z,5.60
2018-09-29T06:28:55.967Z,5.87
2018-09-29T06:31:24.968Z,6.47
2018-09-29T06:33:54.159Z,5.57
2018-09-29T06:36:22.994Z,5.43
2018-09-29T06:38:51.978Z,5.67
2018-09-29T06:41:21.093Z,5.63
2018-09-29T06:43:50.375Z,5.93
2018-09-29T06:46:19.735Z,6.53
2018-09-29T06:48:49.093Z,6.87
2018-09-29T06:51:18.165Z,6.53
2018-09-29T06:53:47.432Z,6.83
2018-09-29T06:56:16.735Z,7.20
2018-09-29T06:58:45.871Z,6.70
2018-09-29T07:01:15.157Z,7.50
2018-09-29T07:03:44.315Z,6.67
2018-09-29T07:06:13.620Z,7.50
2018-09-29T07:08:42.680Z,7.77
2018-09-29T07:11:12.037Z,10.53
2018-09-29T07:13:41.020Z,9.77
2018-09-29T07:16:09.963Z,11.53
2018-09-29T07:18:39.116Z,9.93
2018-09-29T07:21:08.281Z,9.50
2018-09-29T07:23:37.538Z,9.37
2018-09-29T07:26:06.493Z,10.40
2018-09-29T07:28:35.785Z,8.67
2018-09-29T07:31:05.117Z,7.93
2018-09-29T07:33:34.288Z,9.10
2018-09-29T07:36:03.537Z,9.23
2018-09-29T07:38:33.761Z,25.53
2018-09-29T07:41:02.983Z,20.73
2018-09-29T07:43:32.188Z,19.50
2018-09-29T07:46:01.452Z,17.77
2018-09-29T07:48:30.682Z,14.27
2018-09-29T07:50:59.991Z,9.07
2018-09-29T07:53:29.065Z,7.80
2018-09-29T07:55:58.401Z,7.80
2018-09-29T07:58:27.730Z,9.10
2018-09-29T08:00:57.043Z,6.90
2018-09-29T08:03:26.242Z,7.20
2018-09-29T08:05:55.613Z,6.93
2018-09-29T08:08:24.781Z,7.70
2018-09-29T08:10:53.739Z,6.97
2018-09-29T08:13:22.632Z,7.37
2018-09-29T08:15:51.709Z,7.30
2018-09-29T08:18:20.938Z,6.63
2018-09-29T08:20:50.295Z,6.60
2018-09-29T08:23:19.434Z,6.67
2018-09-29T08:25:49.531Z,6.43
2018-09-29T08:28:18.433Z,6.30
2018-09-29T08:30:47.439Z,7.17
2018-09-29T08:33:16.696Z,6.47
2018-09-29T08:35:45.992Z,7.13
2018-09-29T08:38:15.223Z,6.87
2018-09-29T08:40:45.107Z,6.70
2018-09-29T08:43:14.204Z,7.57
2018-09-29T08:45:43.547Z,7.00
2018-09-29T08:48:12.889Z,7.23
2018-09-29T08:50:41.877Z,6.37
2018-09-29T08:53:11.120Z,6.70
2018-09-29T08:55:40.335Z,6.40
2018-09-29T08:58:09.619Z,6.47
2018-09-29T09:00:38.994Z,6.70
2018-09-29T09:03:07.991Z,6.70
2018-09-29T09:05:37.143Z,7.57
2018-09-29T09:08:06.196Z,8.20
2018-09-29T09:10:35.220Z,7.30
2018-09-29T09:13:05.325Z,7.90
2018-09-29T09:15:34.396Z,8.43
2018-09-29T09:18:03.715Z,8.40
2018-09-29T09:20:32.951Z,7.80
2018-09-29T09:23:02.531Z,7.17
2018-09-29T09:25:31.731Z,7.97
2018-09-29T09:28:00.741Z,7.33
2018-09-29T09:30:30.029Z,7.00
2018-09-29T09:32:59.243Z,7.60
2018-09-29T09:35:28.556Z,7.33
2018-09-29T09:37:57.482Z,7.17
2018-09-29T09:40:26.839Z,7.90
2018-09-29T09:42:55.702Z,6.93
2018-09-29T09:45:24.680Z,7.73
2018-09-29T09:47:53.615Z,7.13
2018-09-29T09:50:22.938Z,7.50
2018-09-29T09:52:52.104Z,7.30
2018-09-29T09:55:21.060Z,6.60
2018-09-29T09:57:50.427Z,7.17
2018-09-29T10:00:19.735Z,7.03
2018-09-29T10:03:57.717Z,7.30
2018-09-29T10:06:27.040Z,7.23
2018-09-29T10:08:56.295Z,7.40
2018-09-29T10:11:25.529Z,6.50
2018-09-29T10:13:54.749Z,5.80
2018-09-29T10:16:24.723Z,5.83
2018-09-29T10:18:53.645Z,6.10
2018-09-29T10:21:22.539Z,6.30
2018-09-29T10:23:51.863Z,6.27
2018-09-29T10:26:21.192Z,9.07
2018-09-29T10:28:50.644Z,11.90
2018-09-29T10:31:19.575Z,8.20
2018-09-29T10:33:48.951Z,7.80
2018-09-29T10:36:18.344Z,7.00
2018-09-29T10:38:47.499Z,6.30
2018-09-29T10:41:16.751Z,6.90
2018-09-29T10:43:45.731Z,6.17
2018-09-29T10:46:15.041Z,7.17
2018-09-29T10:48:44.376Z,6.70
2018-09-29T10:51:13.626Z,6.60
2018-09-29T10:53:42.739Z,6.63
2018-09-29T10:56:11.998Z,6.87
2018-09-29T10:58:41.240Z,7.20
2018-09-29T11:01:10.192Z,6.63
2018-09-29T11:03:39.311Z,7.07
2018-09-29T11:06:08.603Z,6.17
2018-09-29T11:08:37.760Z,6.20
2018-09-29T11:11:07.162Z,6.37
2018-09-29T11:13:36.439Z,6.43
2018-09-29T11:16:05.500Z,5.97
2018-09-29T11:18:34.379Z,5.87
2018-09-29T11:21:03.546Z,5.53
2018-09-29T11:23:32.729Z,6.13
2018-09-29T11:26:02.133Z,5.90
2018-09-29T11:28:31.476Z,5.97
2018-09-29T11:31:00.935Z,6.20
2018-09-29T11:33:30.030Z,6.13
2018-09-29T11:35:59.418Z,6.37
2018-09-29T11:38:28.829Z,6.13
2018-09-29T11:40:58.241Z,6.13
2018-09-29T11:43:28.352Z,6.87
2018-09-29T11:45:57.979Z,7.10
2018-09-29T11:48:27.232Z,6.47
2018-09-29T11:50:57.197Z,6.30
2018-09-29T11:53:26.694Z,6.90
2018-09-29T11:55:56.598Z,7.20
2018-09-29T11:58:25.681Z,6.53
2018-09-29T12:00:55.094Z,6.30
2018-09-29T12:03:24.565Z,6.70
2018-09-29T12:05:53.852Z,7.63
2018-09-29T12:08:23.095Z,7.10
2018-09-29T12:10:52.142Z,7.00
2018-09-29T12:13:21.373Z,7.40
2018-09-29T12:15:50.740Z,7.10
2018-09-29T12:18:20.087Z,6.80
2018-09-29T12:20:49.392Z,6.50
2018-09-29T12:23:18.882Z,7.30
2018-09-29T12:25:47.779Z,6.63
2018-09-29T12:28:17.162Z,6.77
2018-09-29T12:30:46.267Z,7.27
2018-09-29T12:33:15.542Z,7.50
2018-09-29T12:35:45.089Z,6.73
2018-09-29T12:38:14.427Z,7.33
2018-09-29T12:40:43.384Z,7.93
2018-09-29T12:43:12.411Z,7.37
2018-09-29T12:45:41.758Z,7.27
2018-09-29T12:48:11.003Z,7.97
2018-09-29T12:50:40.252Z,7.83
2018-09-29T12:53:09.717Z,7.43
2018-09-29T12:55:38.977Z,8.03
2018-09-29T12:58:08.130Z,9.83
2018-09-29T13:00:37.363Z,11.27
2018-09-29T13:03:06.703Z,13.73
2018-09-29T13:05:35.796Z,16.03
2018-09-29T13:08:06.072Z,15.03
2018-09-29T13:10:35.399Z,27.80
2018-09-29T13:13:04.574Z,28.33
2018-09-29T13:15:33.827Z,17.00
2018-09-29T13:18:02.959Z,9.90
2018-09-29T13:20:32.195Z,7.87
2018-09-29T13:23:01.176Z,8.07
2018-09-29T13:25:30.219Z,7.93
2018-09-29T13:27:59.543Z,8.57
2018-09-29T13:30:29.044Z,8.20
2018-09-29T13:32:58.083Z,10.57
2018-09-29T13:35:27.172Z,12.00
2018-09-29T13:37:56.314Z,14.13
2018-09-29T13:40:25.687Z,10.80
2018-09-29T13:42:54.790Z,11.83
2018-09-29T13:45:24.205Z,17.37
2018-09-29T13:47:53.587Z,15.03
2018-09-29T13:50:22.599Z,14.57
2018-09-29T13:52:52.028Z,13.23
2018-09-29T13:55:21.073Z,12.67
2018-09-29T13:57:50.402Z,9.30
2018-09-29T14:00:19.719Z,8.27
2018-09-29T14:02:49.052Z,8.23
2018-09-29T14:05:18.387Z,7.10
2018-09-29T14:07:47.570Z,7.20
2018-09-29T14:10:16.771Z,7.60
2018-09-29T14:12:45.707Z,8.03
2018-09-29T14:15:14.647Z,7.60
2018-09-29T14:17:43.971Z,8.70
2018-09-29T14:20:13.208Z,8.03
2018-09-29T14:22:42.291Z,8.80
2018-09-29T14:25:11.735Z,8.20
2018-09-29T14:27:41.012Z,7.77
2018-09-29T14:30:10.352Z,7.97
2018-09-29T14:32:39.760Z,12.50
2018-09-29T14:35:09.076Z,13.07
2018-09-29T14:37:38.231Z,16.63
2018-09-29T14:40:07.789Z,13.33
2018-09-29T14:42:37.141Z,10.00
2018-09-29T14:45:06.499Z,10.53
2018-09-29T14:47:35.721Z,12.00
2018-09-29T14:50:05.192Z,13.87
2018-09-29T14:52:34.117Z,13.30
2018-09-29T14:55:03.383Z,12.87
2018-09-29T14:57:33.660Z,17.27
2018-09-29T15:00:03.671Z,16.10
2018-09-29T15:02:32.815Z,12.57
2018-09-29T15:05:02.264Z,10.33
2018-09-29T15:07:32.219Z,9.63
2018-09-29T15:10:01.471Z,8.70
2018-09-29T15:12:30.627Z,8.57
2018-09-29T15:15:00.158Z,9.67
2018-09-29T15:17:29.067Z,9.47
2018-09-29T15:19:58.334Z,9.60
2018-09-29T15:22:27.310Z,10.30
2018-09-29T15:24:56.610Z,16.33
2018-09-29T15:27:26.116Z,16.40
2018-09-29T15:29:55.369Z,21.80
2018-09-29T15:32:24.617Z,15.57
2018-09-29T15:34:54.494Z,14.13
2018-09-29T15:37:23.475Z,22.27
2018-09-29T15:39:53.792Z,18.30
2018-09-29T15:42:23.092Z,14.50
2018-09-29T15:44:52.281Z,11.33
2018-09-29T15:47:21.519Z,10.97
2018-09-29T15:49:50.757Z,9.47
2018-09-29T15:52:20.134Z,9.43
2018-09-29T15:54:49.529Z,9.37
2018-09-29T15:57:23.219Z,8.53
2018-09-29T15:59:52.904Z,8.60
2018-09-29T16:02:22.200Z,8.93
2018-09-29T16:04:51.395Z,13.90
2018-09-29T16:07:20.951Z,13.20
2018-09-29T16:09:51.031Z,13.17
2018-09-29T16:12:20.576Z,15.70
2018-09-29T16:14:49.944Z,14.43
2018-09-29T16:17:19.153Z,16.40
2018-09-29T16:19:48.677Z,15.57
2018-09-29T16:22:17.887Z,14.47
2018-09-29T16:24:47.156Z,18.20
2018-09-29T16:27:16.111Z,16.97
2018-09-29T16:29:45.167Z,12.90
2018-09-29T16:32:14.483Z,15.93
2018-09-29T16:34:43.519Z,11.93
2018-09-29T16:37:12.623Z,10.67
2018-09-29T16:39:42.608Z,8.90
2018-09-29T16:42:12.525Z,8.10
2018-09-29T16:44:41.847Z,7.47
2018-09-29T16:47:11.168Z,8.47
2018-09-29T16:49:40.685Z,6.90
2018-09-29T16:52:10.015Z,6.90
2018-09-29T16:54:39.247Z,6.60
2018-09-29T16:57:08.664Z,8.57
2018-09-29T16:59:38.284Z,7.87
2018-09-29T17:02:07.478Z,8.30
2018-09-29T17:04:37.071Z,13.47
2018-09-29T17:07:06.467Z,9.83
2018-09-29T17:09:35.475Z,8.07
2018-09-29T17:12:05.018Z,8.77
2018-09-29T17:14:35.016Z,9.63
2018-09-29T17:17:05.783Z,10.00
2018-09-29T17:19:34.975Z,9.40
2018-09-29T17:22:04.205Z,12.80
2018-09-29T17:24:33.656Z,14.17
2018-09-29T17:27:03.211Z,13.40
2018-09-29T17:29:32.533Z,12.50
2018-09-29T17:32:01.822Z,10.13
2018-09-29T17:34:31.244Z,9.73
2018-09-29T17:37:01.645Z,8.67
2018-09-29T17:39:30.905Z,8.63
2018-09-29T17:42:01.729Z,9.67
2018-09-29T17:44:35.829Z,11.77
2018-09-29T17:47:06.263Z,9.90
2018-09-29T17:49:36.409Z,10.23
2018-09-29T17:52:06.642Z,10.30
2018-09-29T17:54:36.267Z,11.30
2018-09-29T17:57:07.243Z,9.60
2018-09-29T17:59:36.807Z,9.57
2018-09-29T18:02:06.520Z,8.97
2018-09-29T18:04:39.942Z,9.47
2018-09-29T18:07:12.418Z,12.10
2018-09-29T18:09:42.311Z,10.33
2018-09-29T18:12:16.729Z,9.93
2018-09-29T18:14:47.473Z,8.57
2018-09-29T18:17:16.869Z,8.63
2018-09-29T18:19:46.780Z,8.40
2018-09-29T18:22:16.852Z,8.57
2018-09-29T18:24:46.855Z,9.00
2018-09-29T18:27:16.310Z,9.60
2018-09-29T18:29:45.718Z,10.50
2018-09-29T18:32:19.026Z,10.43
2018-09-29T18:34:49.635Z,9.87
2018-09-29T18:37:20.167Z,9.23
2018-09-29T18:39:49.503Z,9.10
2018-09-29T18:42:18.967Z,9.77
2018-09-29T18:44:48.785Z,8.77
2018-09-29T18:47:18.176Z,9.20
2018-09-29T18:49:52.779Z,8.73
2018-09-29T18:52:24.916Z,9.80
2018-09-29T18:54:55.350Z,11.17
2018-09-29T18:57:24.593Z,12.60
2018-09-29T18:59:53.908Z,11.73
2018-09-29T19:02:23.213Z,11.20
2018-09-29T19:04:52.402Z,9.33
2018-09-29T19:07:21.767Z,11.07
2018-09-29T19:09:50.955Z,10.27
2018-09-29T19:12:20.052Z,9.80
2018-09-29T19:14:49.249Z,8.97
2018-09-29T19:17:18.191Z,9.30
2018-09-29T19:19:47.589Z,8.80
2018-09-29T19:22:16.928Z,9.60
2018-09-29T19:24:45.899Z,9.33
2018-09-29T19:27:15.116Z,10.00
2018-09-29T19:29:44.501Z,9.73
2018-09-29T19:32:13.547Z,8.27
2018-09-29T19:34:43.199Z,8.13
2018-09-29T19:37:12.440Z,7.77
2018-09-29T19:39:41.893Z,8.23
2018-09-29T19:42:10.848Z,8.40
2018-09-29T19:44:39.752Z,8.43
2018-09-29T19:47:08.742Z,9.30
2018-09-29T19:49:37.950Z,9.70
2018-09-29T19:52:06.944Z,8.90
2018-09-29T19:54:36.444Z,8.53
2018-09-29T19:57:05.835Z,9.23
2018-09-29T19:59:34.725Z,10.53
2018-09-29T20:02:04.004Z,9.70
2018-09-29T20:04:33.174Z,8.87
2018-09-29T20:07:02.427Z,9.53
2018-09-29T20:09:31.719Z,8.53
2018-09-29T20:12:00.823Z,9.37
2018-09-29T20:14:29.701Z,9.43
2018-09-29T20:16:58.631Z,8.90
2018-09-29T20:19:27.993Z,8.63
2018-09-29T20:21:57.209Z,8.73
2018-09-29T20:24:26.179Z,8.83
2018-09-29T20:26:55.338Z,9.00
2018-09-29T20:29:24.288Z,9.43
2018-09-29T20:31:53.466Z,9.47
2018-09-29T20:34:22.728Z,8.63
2018-09-29T20:36:51.869Z,9.17
2018-09-29T20:39:21.195Z,9.73
2018-09-29T20:41:50.181Z,9.13
2018-09-29T20:44:19.163Z,10.40
2018-09-29T20:46:48.291Z,8.47
2018-09-29T20:49:17.557Z,9.60
2018-09-29T20:51:46.603Z,8.73
2018-09-29T20:54:15.887Z,8.57
2018-09-29T20:56:44.928Z,9.00
2018-09-29T20:59:13.998Z,9.50
2018-09-29T21:01:43.407Z,9.10
2018-09-29T21:04:12.611Z,9.30
2018-09-29T21:06:41.873Z,9.07
2018-09-29T21:09:11.107Z,7.87
2018-09-29T21:11:40.380Z,9.43
2018-09-29T21:14:09.942Z,8.37
2018-09-29T21:16:38.935Z,8.67
2018-09-29T21:19:08.208Z,8.33
2018-09-29T21:21:37.400Z,8.60
2018-09-29T21:24:06.502Z,9.00
2018-09-29T21:26:35.640Z,7.87
2018-09-29T21:29:04.900Z,8.80
2018-09-29T21:31:34.395Z,8.27
2018-09-29T21:34:03.738Z,9.03
2018-09-29T21:36:32.956Z,8.43
2018-09-29T21:39:02.159Z,9.03
2018-09-29T21:41:31.480Z,8.77
2018-09-29T21:44:00.483Z,9.17
2018-09-29T21:46:29.688Z,9.53
2018-09-29T21:48:58.951Z,9.47
2018-09-29T21:51:28.226Z,9.10
2018-09-29T21:53:57.578Z,9.30
2018-09-29T21:56:26.979Z,8.97
2018-09-29T21:58:55.915Z,9.23
2018-09-29T22:01:32.030Z,10.03
2018-09-29T22:04:02.218Z,10.60
2018-09-29T22:06:31.535Z,9.63
2018-09-29T22:09:00.922Z,10.07
2018-09-29T22:11:30.228Z,9.40
2018-09-29T22:13:59.447Z,10.40
2018-09-29T22:16:28.563Z,9.50
2018-09-29T22:18:58.104Z,9.77
2018-09-29T22:21:27.368Z,9.10
2018-09-29T22:23:56.467Z,9.73
2018-09-29T22:26:25.624Z,9.93
2018-09-29T22:28:54.922Z,9.30
2018-09-29T22:31:24.083Z,9.80
2018-09-29T22:33:53.257Z,9.77
2018-09-29T22:36:22.219Z,9.70
2018-09-29T22:38:51.124Z,9.73
2018-09-29T22:41:20.151Z,9.30
2018-09-29T22:43:49.095Z,10.17
2018-09-29T22:46:18.443Z,9.70
2018-09-29T22:48:47.743Z,9.70
2018-09-29T22:51:16.689Z,9.40
2018-09-29T22:53:45.616Z,9.30
2018-09-29T22:56:14.893Z,10.20
2018-09-29T22:58:43.911Z,9.50
2018-09-29T23:01:13.168Z,10.10
2018-09-29T23:03:42.407Z,10.20
2018-09-29T23:06:11.708Z,9.67
2018-09-29T23:08:40.828Z,9.80
2018-09-29T23:11:10.012Z,9.57
2018-09-29T23:13:39.189Z,9.93
2018-09-29T23:16:08.395Z,9.97
2018-09-29T23:18:37.720Z,9.80
2018-09-29T23:21:07.354Z,10.37
2018-09-29T23:23:36.495Z,10.53
2018-09-29T23:26:05.701Z,9.80
2018-09-29T23:28:34.792Z,10.30
2018-09-29T23:31:03.837Z,10.10
2018-09-29T23:33:33.223Z,10.17
2018-09-29T23:36:02.448Z,10.17
2018-09-29T23:38:31.651Z,10.53
2018-09-29T23:41:01.101Z,10.53
2018-09-29T23:43:29.984Z,10.37
2018-09-29T23:45:59.271Z,10.03
2018-09-29T23:48:28.303Z,10.53
2018-09-29T23:50:57.614Z,10.30
2018-09-29T23:53:26.912Z,10.30
2018-09-29T23:55:56.112Z,9.93
2018-09-29T23:58:25.352Z,9.77
